createdAt,value
2018-12-01T00:00:36.405Z,0.90
2018-12-01T00:03:05.673Z,0.90
2018-12-01T00:05:34.886Z,1.10
2018-12-01T00:08:04.097Z,1.10
2018-12-01T00:10:33.328Z,1.10
2018-12-01T00:13:02.487Z,0.90
2018-12-01T00:15:31.777Z,1.20
2018-12-01T00:18:00.993Z,1.00
2018-12-01T00:20:33.801Z,0.90
2018-12-01T00:23:03.064Z,0.90
2018-12-01T00:25:32.232Z,0.90
2018-12-01T00:28:01.404Z,0.80
2018-12-01T00:30:30.604Z,1.00
2018-12-01T00:32:59.852Z,1.00
2018-12-01T00:35:29.079Z,1.00
2018-12-01T00:37:58.280Z,1.10
2018-12-01T00:40:27.452Z,0.90
2018-12-01T00:42:56.654Z,0.90
2018-12-01T00:45:25.946Z,1.00
2018-12-01T00:47:55.309Z,0.90
2018-12-01T00:50:25.126Z,0.90
2018-12-01T00:52:54.869Z,0.80
2018-12-01T00:55:24.163Z,0.90
2018-12-01T00:57:53.377Z,0.90
2018-12-01T01:00:24.424Z,1.00
2018-12-01T01:02:55.726Z,0.90
2018-12-01T01:05:28.172Z,1.00
2018-12-01T01:07:58.372Z,0.70
2018-12-01T01:10:32.248Z,1.00
2018-12-01T01:13:01.493Z,0.90
2018-12-01T01:15:30.686Z,0.80
2018-12-01T01:17:59.907Z,1.20
2018-12-01T01:20:29.129Z,1.20
2018-12-01T01:22:58.372Z,1.30
2018-12-01T01:25:27.549Z,1.40
2018-12-01T01:27:56.760Z,1.40
2018-12-01T01:30:25.968Z,1.30
2018-12-01T01:33:58.627Z,1.30
2018-12-01T01:36:27.836Z,1.20
2018-12-01T01:38:57.061Z,1.30
2018-12-01T01:41:26.222Z,1.30
2018-12-01T01:43:55.441Z,1.30
2018-12-01T01:46:24.701Z,1.10
2018-12-01T01:48:53.855Z,1.20
2018-12-01T01:51:23.035Z,1.10
2018-12-01T01:53:52.234Z,1.00
2018-12-01T01:56:21.395Z,1.20
2018-12-01T01:58:50.609Z,1.20
2018-12-01T02:01:19.769Z,1.10
2018-12-01T02:03:48.940Z,1.10
2018-12-01T02:06:18.196Z,1.10
2018-12-01T02:08:47.379Z,1.10
2018-12-01T02:11:16.569Z,1.00
2018-12-01T02:13:45.805Z,1.10
2018-12-01T02:16:15.025Z,0.90
2018-12-01T02:18:44.201Z,0.90
2018-12-01T02:21:13.431Z,1.00
2018-12-01T02:23:42.619Z,1.10
2018-12-01T02:26:11.851Z,1.00
2018-12-01T02:28:41.030Z,1.10
2018-12-01T02:31:10.250Z,0.90
2018-12-01T02:33:39.426Z,1.00
2018-12-01T02:36:08.620Z,1.10
2018-12-01T02:38:37.819Z,1.20
2018-12-01T02:41:07.071Z,1.10
2018-12-01T02:43:36.299Z,1.10
2018-12-01T02:46:22.816Z,1.20
2018-12-01T02:48:52.015Z,0.90
2018-12-01T02:51:21.207Z,0.90
2018-12-01T02:53:50.389Z,1.10
2018-12-01T02:56:19.630Z,0.90
2018-12-01T02:58:48.816Z,0.90
2018-12-01T03:01:18.017Z,1.10
2018-12-01T03:03:47.201Z,1.00
2018-12-01T03:06:16.364Z,0.80
2018-12-01T03:08:45.561Z,1.00
2018-12-01T03:11:14.758Z,0.90
2018-12-01T03:13:43.944Z,0.90
2018-12-01T03:16:13.208Z,1.10
2018-12-01T03:18:42.448Z,1.10
2018-12-01T03:21:11.660Z,1.10
2018-12-01T03:23:40.840Z,1.10
2018-12-01T03:26:10.025Z,1.20
2018-12-01T03:28:39.233Z,0.40
2018-12-01T03:31:08.416Z,0.80
2018-12-01T03:33:37.766Z,1.00
2018-12-01T03:36:06.932Z,1.00
2018-12-01T03:38:36.139Z,1.10
2018-12-01T03:41:05.480Z,1.10
2018-12-01T03:43:34.776Z,0.80
2018-12-01T03:46:03.970Z,0.80
2018-12-01T03:48:33.142Z,1.00
2018-12-01T03:51:02.349Z,1.00
2018-12-01T03:53:31.515Z,0.60
2018-12-01T03:56:00.736Z,0.80
2018-12-01T03:58:30.011Z,1.00
2018-12-01T04:00:59.220Z,1.00
2018-12-01T04:03:28.379Z,0.90
2018-12-01T04:05:57.751Z,1.00
2018-12-01T04:08:27.030Z,0.80
2018-12-01T04:10:56.223Z,1.10
2018-12-01T04:13:25.463Z,1.10
2018-12-01T04:15:54.685Z,1.00
2018-12-01T04:18:23.884Z,1.00
2018-12-01T04:20:53.038Z,0.90
2018-12-01T04:23:22.241Z,0.90
2018-12-01T04:25:51.422Z,0.80
2018-12-01T04:28:20.682Z,1.00
2018-12-01T04:30:49.952Z,0.90
2018-12-01T04:33:19.140Z,0.90
2018-12-01T04:35:48.383Z,1.10
2018-12-01T04:38:17.560Z,1.20
2018-12-01T04:40:46.750Z,1.00
2018-12-01T04:43:15.963Z,1.00
2018-12-01T04:45:45.222Z,0.80
2018-12-01T04:48:14.469Z,0.40
2018-12-01T04:50:43.649Z,0.60
2018-12-01T04:53:12.901Z,0.50
2018-12-01T04:55:42.103Z,0.60
2018-12-01T04:58:11.292Z,1.00
2018-12-01T05:00:40.515Z,0.80
2018-12-01T05:03:09.753Z,0.70
2018-12-01T05:05:38.962Z,0.60
2018-12-01T05:08:08.159Z,0.80
2018-12-01T05:10:37.407Z,1.00
2018-12-01T05:13:06.930Z,1.10
2018-12-01T05:15:36.126Z,1.10
2018-12-01T05:18:05.701Z,0.50
2018-12-01T05:20:34.952Z,0.30
2018-12-01T05:23:04.176Z,0.50
2018-12-01T05:25:33.377Z,0.80
2018-12-01T05:28:02.666Z,0.60
2018-12-01T05:33:41.951Z,0.70
2018-12-01T05:36:11.130Z,0.80
2018-12-01T05:38:40.318Z,1.10
2018-12-01T05:41:09.621Z,0.90
2018-12-01T05:43:38.773Z,0.70
2018-12-01T05:46:08.008Z,0.90
2018-12-01T05:48:37.208Z,1.00
2018-12-01T05:51:06.539Z,1.20
2018-12-01T05:53:35.832Z,0.90
2018-12-01T05:56:05.096Z,0.40
2018-12-01T05:58:34.384Z,0.10
2018-12-01T06:01:03.626Z,0.50
2018-12-01T06:03:32.850Z,-0.20
2018-12-01T06:06:02.035Z,-0.40
2018-12-01T06:08:31.406Z,-0.60
2018-12-01T06:11:00.606Z,-0.70
2018-12-01T06:13:36.273Z,-0.70
2018-12-01T06:16:05.602Z,-0.70
2018-12-01T06:18:34.781Z,0.00
2018-12-01T06:21:04.184Z,-0.40
2018-12-01T06:23:33.344Z,-0.70
2018-12-01T06:26:02.726Z,-0.80
2018-12-01T06:28:31.978Z,-0.40
2018-12-01T06:31:01.179Z,-0.30
2018-12-01T06:33:30.378Z,-0.50
2018-12-01T06:35:59.629Z,-0.70
2018-12-01T06:38:28.921Z,-0.80
2018-12-01T06:40:58.112Z,-0.80
2018-12-01T06:43:27.455Z,-0.50
2018-12-01T06:45:56.651Z,-0.70
2018-12-01T06:48:25.806Z,-0.80
2018-12-01T06:50:55.038Z,-0.60
2018-12-01T06:53:24.228Z,-0.60
2018-12-01T06:55:53.409Z,-0.60
2018-12-01T06:58:22.742Z,-0.70
2018-12-01T07:00:51.943Z,-0.50
2018-12-01T07:03:21.193Z,-0.70
2018-12-01T07:05:50.392Z,-0.60
2018-12-01T07:08:19.586Z,-0.60
2018-12-01T07:10:48.783Z,0.00
2018-12-01T07:13:17.974Z,0.10
2018-12-01T07:15:47.270Z,-0.30
2018-12-01T07:18:33.745Z,-0.30
2018-12-01T07:21:02.907Z,-0.60
2018-12-01T07:23:32.082Z,-0.70
2018-12-01T07:26:01.324Z,-0.70
2018-12-01T07:28:30.537Z,-0.50
2018-12-01T07:30:59.755Z,-0.50
2018-12-01T07:33:28.970Z,-0.60
2018-12-01T07:35:58.226Z,-0.40
2018-12-01T07:38:27.420Z,-0.30
2018-12-01T07:40:56.888Z,-0.30
2018-12-01T07:43:26.081Z,-0.50
2018-12-01T07:45:55.337Z,-0.30
2018-12-01T07:48:24.520Z,-0.40
2018-12-01T07:50:53.740Z,-0.50
2018-12-01T07:53:22.967Z,-0.70
2018-12-01T07:55:52.182Z,-0.40
2018-12-01T07:58:21.606Z,0.00
2018-12-01T08:00:50.884Z,0.00
2018-12-01T08:03:20.113Z,0.80
2018-12-01T08:05:49.575Z,0.90
2018-12-01T08:08:18.752Z,0.50
2018-12-01T08:10:48.980Z,1.10
2018-12-01T08:13:18.264Z,1.10
2018-12-01T08:15:47.424Z,1.20
2018-12-01T08:18:16.749Z,1.10
2018-12-01T08:20:47.805Z,1.20
2018-12-01T08:23:17.248Z,1.40
2018-12-01T08:25:46.506Z,1.40
2018-12-01T08:28:18.999Z,1.50
2018-12-01T08:30:48.242Z,1.50
2018-12-01T08:33:17.631Z,1.40
2018-12-01T08:35:46.892Z,1.00
2018-12-01T08:38:16.149Z,1.40
2018-12-01T08:40:45.610Z,1.70
2018-12-01T08:43:14.872Z,1.60
2018-12-01T08:45:44.127Z,1.70
2018-12-01T08:48:13.406Z,1.50
2018-12-01T08:50:42.761Z,1.30
2018-12-01T08:53:12.079Z,1.40
2018-12-01T08:55:41.365Z,1.60
2018-12-01T08:58:10.927Z,1.50
2018-12-01T09:00:42.774Z,1.60
2018-12-01T09:03:22.034Z,1.80
2018-12-01T09:05:51.963Z,1.80
2018-12-01T09:08:21.334Z,2.10
2018-12-01T09:10:50.530Z,2.20
2018-12-01T09:13:19.822Z,2.40
2018-12-01T09:15:49.160Z,2.40
2018-12-01T09:18:18.959Z,2.40
2018-12-01T09:20:48.540Z,2.40
2018-12-01T09:23:17.789Z,2.10
2018-12-01T09:25:47.015Z,2.20
2018-12-01T09:28:16.297Z,2.20
2018-12-01T09:30:45.626Z,2.20
2018-12-01T09:33:14.927Z,2.20
2018-12-01T09:35:44.209Z,2.40
2018-12-01T09:38:13.439Z,2.30
2018-12-01T09:40:42.756Z,2.20
2018-12-01T09:43:12.039Z,2.40
2018-12-01T09:45:41.223Z,2.30
2018-12-01T09:48:10.420Z,2.20
2018-12-01T09:50:39.704Z,2.10
2018-12-01T09:53:08.960Z,2.00
2018-12-01T09:55:38.201Z,2.10
2018-12-01T09:58:07.692Z,2.40
2018-12-01T10:00:36.909Z,2.20
2018-12-01T10:03:08.455Z,2.30
2018-12-01T10:05:37.700Z,2.30
2018-12-01T10:08:07.675Z,2.10
2018-12-01T10:10:37.111Z,2.10
2018-12-01T10:13:06.355Z,2.00
2018-12-01T10:15:37.012Z,2.10
2018-12-01T10:18:08.621Z,2.10
2018-12-01T10:20:38.752Z,2.10
2018-12-01T10:23:10.332Z,2.00
2018-12-01T10:25:39.572Z,2.00
2018-12-01T10:28:10.771Z,2.20
2018-12-01T10:30:40.006Z,2.40
2018-12-01T10:33:09.224Z,2.20
2018-12-01T10:35:38.726Z,2.50
2018-12-01T10:38:14.391Z,2.30
2018-12-01T10:40:43.644Z,2.30
2018-12-01T10:43:12.863Z,2.20
2018-12-01T10:45:42.119Z,2.10
2018-12-01T10:48:11.596Z,2.30
2018-12-01T10:50:40.996Z,2.30
2018-12-01T10:53:10.243Z,2.20
2018-12-01T10:55:39.430Z,2.20
2018-12-01T10:58:18.662Z,2.20
2018-12-01T11:00:54.778Z,2.10
2018-12-01T11:03:32.899Z,1.90
2018-12-01T11:06:05.734Z,2.30
2018-12-01T11:08:35.002Z,2.20
2018-12-01T11:11:04.233Z,2.10
2018-12-01T11:13:33.429Z,2.50
2018-12-01T11:19:06.617Z,2.10
2018-12-01T11:21:35.929Z,2.20
2018-12-01T11:24:05.369Z,2.50
2018-12-01T11:26:34.604Z,2.30
2018-12-01T11:29:04.429Z,2.30
2018-12-01T11:31:33.616Z,2.40
2018-12-01T11:34:02.824Z,2.30
2018-12-01T11:36:32.084Z,2.40
2018-12-01T11:39:01.337Z,2.50
2018-12-01T11:41:30.581Z,2.60
2018-12-01T11:43:59.764Z,2.30
2018-12-01T11:46:29.048Z,2.30
2018-12-01T11:48:59.424Z,2.50
2018-12-01T11:51:28.652Z,2.60
2018-12-01T11:53:58.062Z,2.30
2018-12-01T11:56:27.300Z,2.60
2018-12-01T11:58:57.003Z,2.50
2018-12-01T12:01:26.240Z,2.60
2018-12-01T12:03:55.914Z,2.50
2018-12-01T12:06:25.113Z,2.70
2018-12-01T12:08:54.393Z,2.70
2018-12-01T12:11:23.694Z,2.80
2018-12-01T12:13:52.915Z,2.70
2018-12-01T12:16:22.148Z,3.00
2018-12-01T12:18:51.356Z,2.80
2018-12-01T12:21:20.551Z,2.90
2018-12-01T12:23:49.811Z,2.90
2018-12-01T12:26:19.008Z,3.10
2018-12-01T12:28:48.252Z,3.00
2018-12-01T12:31:17.702Z,3.10
2018-12-01T12:33:46.913Z,3.10
2018-12-01T12:36:16.213Z,3.10
2018-12-01T12:38:45.437Z,3.10
2018-12-01T12:41:14.623Z,3.00
2018-12-01T12:43:43.826Z,3.00
2018-12-01T12:46:13.040Z,3.00
2018-12-01T12:48:42.232Z,3.00
2018-12-01T12:51:11.458Z,3.10
2018-12-01T12:53:40.687Z,3.00
2018-12-01T12:56:09.907Z,3.00
2018-12-01T12:58:39.120Z,3.10
2018-12-01T13:01:08.453Z,3.20
2018-12-01T13:03:37.665Z,3.20
2018-12-01T13:06:07.547Z,3.00
2018-12-01T13:08:36.767Z,3.00
2018-12-01T13:11:06.193Z,2.70
2018-12-01T13:13:35.385Z,2.70
2018-12-01T13:16:04.634Z,2.50
2018-12-01T13:18:33.811Z,2.60
2018-12-01T13:21:03.013Z,2.60
2018-12-01T13:23:32.309Z,2.50
2018-12-01T13:26:01.541Z,2.70
2018-12-01T13:28:30.733Z,2.50
2018-12-01T13:31:01.262Z,2.60
2018-12-01T13:33:30.460Z,2.40
2018-12-01T13:35:59.655Z,2.50
2018-12-01T13:38:30.224Z,2.60
2018-12-01T13:40:59.431Z,2.80
2018-12-01T13:43:28.636Z,2.90
2018-12-01T13:45:57.877Z,3.00
2018-12-01T13:48:27.097Z,3.10
2018-12-01T13:50:56.340Z,3.00
2018-12-01T13:53:25.555Z,3.00
2018-12-01T13:55:55.049Z,2.80
2018-12-01T13:58:24.293Z,3.10
2018-12-01T14:00:53.485Z,3.10
2018-12-01T14:03:22.690Z,3.00
2018-12-01T14:05:51.933Z,3.10
2018-12-01T14:08:21.286Z,3.10
2018-12-01T14:10:51.993Z,3.20
2018-12-01T14:13:21.210Z,3.10
2018-12-01T14:15:50.385Z,3.20
2018-12-01T14:18:19.782Z,3.10
2018-12-01T14:20:49.095Z,3.20
2018-12-01T14:23:18.277Z,3.20
2018-12-01T14:25:47.538Z,3.20
2018-12-01T14:28:16.785Z,3.30
2018-12-01T14:30:46.005Z,3.40
2018-12-01T14:33:16.369Z,3.50
2018-12-01T14:35:44.537Z,3.50
2018-12-01T14:38:16.396Z,3.40
2018-12-01T14:40:49.200Z,3.50
2018-12-01T14:43:18.488Z,3.60
2018-12-01T14:45:49.519Z,3.50
2018-12-01T14:48:18.727Z,3.50
2018-12-01T14:50:48.813Z,3.70
2018-12-01T14:53:18.787Z,3.40
2018-12-01T14:55:47.986Z,3.70
2018-12-01T14:58:17.156Z,3.60
2018-12-01T15:00:46.393Z,3.40
2018-12-01T15:03:15.610Z,3.60
2018-12-01T15:05:45.101Z,3.50
2018-12-01T15:08:14.368Z,3.20
2018-12-01T15:10:43.883Z,3.20
2018-12-01T15:13:13.094Z,2.80
2018-12-01T15:15:42.372Z,3.10
2018-12-01T15:18:11.557Z,3.40
2018-12-01T15:20:40.786Z,3.50
2018-12-01T15:23:10.112Z,3.70
2018-12-01T15:25:39.307Z,3.30
2018-12-01T15:28:08.509Z,3.50
2018-12-01T15:30:37.764Z,3.30
2018-12-01T15:33:09.611Z,3.20
2018-12-01T15:35:39.010Z,3.50
2018-12-01T15:38:09.512Z,3.20
2018-12-01T15:43:49.089Z,3.30
2018-12-01T15:46:18.298Z,3.20
2018-12-01T15:48:47.508Z,3.20
2018-12-01T15:51:16.720Z,3.30
2018-12-01T15:53:45.939Z,3.40
2018-12-01T15:56:15.194Z,3.40
2018-12-01T15:58:44.463Z,3.30
2018-12-01T16:01:13.653Z,3.40
2018-12-01T16:03:42.856Z,3.20
2018-12-01T16:06:12.125Z,3.20
2018-12-01T16:08:41.365Z,2.90
2018-12-01T16:11:11.113Z,3.20
2018-12-01T16:13:40.501Z,3.40
2018-12-01T16:16:10.424Z,3.20
2018-12-01T16:18:39.632Z,3.00
2018-12-01T16:21:09.008Z,2.90
2018-12-01T16:23:38.243Z,3.00
2018-12-01T16:26:07.454Z,3.30
2018-12-01T16:28:36.806Z,3.30
2018-12-01T16:31:07.850Z,3.50
2018-12-01T16:33:37.126Z,3.40
2018-12-01T16:36:07.188Z,3.50
2018-12-01T16:38:37.024Z,3.60
2018-12-01T16:41:18.996Z,3.60
2018-12-01T16:43:48.274Z,3.70
2018-12-01T16:46:17.446Z,3.60
2018-12-01T16:48:46.781Z,3.50
2018-12-01T16:51:16.053Z,3.60
2018-12-01T16:53:45.275Z,3.40
2018-12-01T16:56:14.485Z,3.00
2018-12-01T16:58:43.985Z,3.50
2018-12-01T17:01:14.227Z,3.70
2018-12-01T17:03:43.482Z,3.60
2018-12-01T17:06:18.156Z,3.70
2018-12-01T17:08:48.081Z,3.60
2018-12-01T17:11:17.397Z,3.50
2018-12-01T17:13:46.712Z,3.40
2018-12-01T17:16:15.905Z,3.40
2018-12-01T17:18:45.132Z,3.30
2018-12-01T17:21:14.386Z,3.40
2018-12-01T17:23:43.716Z,3.20
2018-12-01T17:26:12.956Z,3.30
2018-12-01T17:28:42.168Z,3.10
2018-12-01T17:31:11.424Z,3.10
2018-12-01T17:33:40.637Z,3.20
2018-12-01T17:36:10.391Z,3.00
2018-12-01T17:38:39.618Z,3.00
2018-12-01T17:41:18.171Z,3.10
2018-12-01T17:43:53.988Z,3.20
2018-12-01T17:46:25.884Z,3.10
2018-12-01T17:48:55.156Z,3.20
2018-12-01T17:51:24.381Z,3.30
2018-12-01T17:53:56.610Z,3.20
2018-12-01T17:56:25.838Z,3.20
2018-12-01T17:58:55.250Z,3.40
2018-12-01T18:01:24.500Z,3.40
2018-12-01T18:03:53.757Z,3.50
2018-12-01T18:06:22.969Z,3.60
2018-12-01T18:08:52.257Z,3.40
2018-12-01T18:11:21.698Z,3.50
2018-12-01T18:13:51.046Z,3.50
2018-12-01T18:16:20.314Z,3.50
2018-12-01T18:18:49.567Z,3.50
2018-12-01T18:21:18.834Z,3.40
2018-12-01T18:23:48.089Z,3.50
2018-12-01T18:26:17.420Z,3.50
2018-12-01T18:28:49.750Z,3.50
2018-12-01T18:31:22.909Z,3.70
2018-12-01T18:33:59.011Z,3.70
2018-12-01T18:36:40.835Z,3.80
2018-12-01T18:39:15.637Z,3.70
2018-12-01T18:41:44.832Z,3.60
2018-12-01T18:44:14.054Z,3.70
2018-12-01T18:46:43.361Z,3.60
2018-12-01T18:49:12.888Z,3.60
2018-12-01T18:51:42.078Z,3.50
2018-12-01T18:54:11.300Z,3.40
2018-12-01T18:56:40.521Z,3.50
2018-12-01T18:59:09.705Z,3.60
2018-12-01T19:01:38.975Z,3.10
2018-12-01T19:04:08.207Z,3.10
2018-12-01T19:06:37.460Z,3.50
2018-12-01T19:09:08.769Z,3.20
2018-12-01T19:11:38.245Z,3.50
2018-12-01T19:14:07.919Z,3.70
2018-12-01T19:16:38.749Z,3.60
2018-12-01T19:19:07.957Z,3.50
2018-12-01T19:21:37.984Z,3.40
2018-12-01T19:24:07.328Z,3.20
2018-12-01T19:26:36.555Z,3.40
2018-12-01T19:29:06.802Z,3.50
2018-12-01T19:31:36.064Z,3.60
2018-12-01T19:34:05.781Z,3.50
2018-12-01T19:36:35.073Z,3.40
2018-12-01T19:39:05.688Z,3.40
2018-12-01T19:41:34.932Z,3.50
2018-12-01T19:44:04.760Z,3.50
2018-12-01T19:46:33.995Z,3.50
2018-12-01T19:49:03.351Z,3.40
2018-12-01T19:51:32.580Z,3.30
2018-12-01T19:54:01.776Z,3.30
2018-12-01T19:56:31.019Z,3.30
2018-12-01T19:59:00.247Z,3.30
2018-12-01T20:01:29.469Z,3.50
2018-12-01T20:03:58.735Z,3.40
2018-12-01T20:06:28.239Z,3.40
2018-12-01T20:08:57.438Z,3.30
2018-12-01T20:11:26.693Z,3.30
2018-12-01T20:13:56.581Z,3.50
2018-12-01T20:16:32.421Z,3.50
2018-12-01T20:19:02.452Z,3.50
2018-12-01T20:21:31.903Z,2.70
2018-12-01T20:24:01.168Z,2.60
2018-12-01T20:26:30.401Z,3.30
2018-12-01T20:28:59.636Z,2.90
2018-12-01T20:31:28.901Z,2.70
2018-12-01T20:34:01.438Z,3.10
2018-12-01T20:36:36.254Z,2.90
2018-12-01T20:39:15.449Z,2.70
2018-12-01T20:41:45.710Z,2.80
2018-12-01T20:44:14.946Z,2.60
2018-12-01T20:46:44.239Z,2.90
2018-12-01T20:49:14.174Z,2.70
2018-12-01T20:51:43.378Z,2.50
2018-12-01T20:54:28.053Z,2.90
2018-12-01T20:57:03.590Z,3.10
2018-12-01T20:59:33.350Z,3.30
2018-12-01T21:02:02.550Z,3.20
2018-12-01T21:04:31.756Z,3.40
2018-12-01T21:07:01.013Z,3.50
2018-12-01T21:09:30.248Z,3.40
2018-12-01T21:11:59.885Z,3.50
2018-12-01T21:14:29.415Z,3.60
2018-12-01T21:16:58.656Z,3.50
2018-12-01T21:19:27.885Z,3.50
2018-12-01T21:21:57.366Z,3.40
2018-12-01T21:24:26.578Z,3.40
2018-12-01T21:26:55.808Z,3.40
2018-12-01T21:29:25.066Z,3.50
2018-12-01T21:31:55.464Z,3.20
2018-12-01T21:34:24.746Z,3.40
2018-12-01T21:36:54.023Z,3.20
2018-12-01T21:39:23.829Z,3.00
2018-12-01T21:41:53.072Z,3.30
2018-12-01T21:44:22.278Z,2.90
2018-12-01T21:46:51.520Z,2.80
2018-12-01T21:49:20.769Z,2.70
2018-12-01T21:51:49.956Z,2.70
2018-12-01T21:54:19.389Z,3.00
2018-12-01T21:56:48.588Z,2.80
2018-12-01T21:59:17.798Z,2.60
2018-12-01T22:01:47.042Z,2.60
2018-12-01T22:04:16.245Z,2.80
2018-12-01T22:06:45.410Z,2.90
2018-12-01T22:09:15.576Z,3.30
2018-12-01T22:11:44.766Z,2.90
2018-12-01T22:14:13.985Z,3.30
2018-12-01T22:16:43.824Z,3.20
2018-12-01T22:19:13.029Z,2.80
2018-12-01T22:21:42.245Z,2.50
2018-12-01T22:24:11.456Z,2.20
2018-12-01T22:26:41.656Z,2.00
2018-12-01T22:29:10.877Z,2.10
2018-12-01T22:31:40.065Z,2.30
2018-12-01T22:34:09.254Z,2.30
2018-12-01T22:36:38.701Z,2.40
2018-12-01T22:39:11.139Z,2.40
2018-12-01T22:41:40.331Z,2.10
2018-12-01T22:44:09.540Z,2.30
2018-12-01T22:46:38.769Z,2.50
2018-12-01T22:49:07.973Z,2.70
2018-12-01T22:51:37.224Z,2.50
2018-12-01T22:54:07.146Z,2.30
2018-12-01T22:56:36.366Z,2.30
2018-12-01T22:59:06.511Z,2.40
2018-12-01T23:01:35.762Z,2.50
2018-12-01T23:04:06.352Z,2.70
2018-12-01T23:06:35.577Z,2.60
2018-12-01T23:09:06.411Z,2.60
2018-12-01T23:11:35.586Z,2.40
2018-12-01T23:14:04.805Z,2.40
2018-12-01T23:16:34.034Z,2.60
2018-12-01T23:19:03.261Z,2.70
2018-12-01T23:21:32.490Z,2.70
2018-12-01T23:24:01.692Z,2.70
2018-12-01T23:26:30.916Z,2.80
2018-12-01T23:29:00.186Z,2.80
2018-12-01T23:31:29.389Z,2.80
2018-12-01T23:33:58.604Z,2.90
2018-12-01T23:36:27.920Z,2.80
2018-12-01T23:38:57.114Z,2.90
2018-12-01T23:41:26.341Z,2.90
2018-12-01T23:43:55.563Z,3.00
2018-12-01T23:46:24.731Z,3.10
2018-12-01T23:48:53.940Z,3.10
2018-12-01T23:51:23.158Z,3.20
2018-12-01T23:53:52.356Z,3.10
2018-12-01T23:56:21.585Z,3.20
2018-12-01T23:58:50.770Z,3.20
